sensor_id;sensor_type;location;lat;lon;timestamp;pressure;altitude;pressure_sealevel;temperature;humidity
72414;BME280;60995;52.154;4.498;2023-12-04T00:02:10;101358.41;;;2.74;100.00
72414;BME280;60995;52.154;4.498;2023-12-04T00:04:26;101356.19;;;2.83;100.00
72414;BME280;60995;52.154;4.498;2023-12-04T00:06:43;101349.41;;;2.75;100.00
72414;BME280;60995;52.154;4.498;2023-12-04T00:08:59;101354.63;;;2.59;100.00
72414;BME280;60995;52.154;4.498;2023-12-04T00:11:15;101349.28;;;2.59;100.00
72414;BME280;60995;52.154;4.498;2023-12-04T00:13:31;101352.19;;;2.74;100.00
72414;BME280;60995;52.154;4.498;2023-12-04T00:15:48;101352.22;;;2.72;100.00
72414;BME280;60995;52.154;4.498;2023-12-04T00:18:04;101347.59;;;2.57;100.00
72414;BME280;60995;52.154;4.498;2023-12-04T00:20:20;101349.50;;;2.55;100.00
72414;BME280;60995;52.154;4.498;2023-12-04T00:22:37;101347.19;;;2.47;100.00
72414;BME280;60995;52.154;4.498;2023-12-04T00:24:54;101342.84;;;2.44;100.00
72414;BME280;60995;52.154;4.498;2023-12-04T00:27:10;101349.13;;;2.43;100.00
72414;BME280;60995;52.154;4.498;2023-12-04T00:29:26;101342.69;;;2.47;100.00
72414;BME280;60995;52.154;4.498;2023-12-04T00:31:43;101346.81;;;2.55;100.00
72414;BME280;60995;52.154;4.498;2023-12-04T00:33:59;101343.34;;;2.53;100.00
72414;BME280;60995;52.154;4.498;2023-12-04T00:36:16;101339.44;;;2.41;100.00
72414;BME280;60995;52.154;4.498;2023-12-04T00:38:32;101349.44;;;2.56;100.00
72414;BME280;60995;52.154;4.498;2023-12-04T00:40:48;101351.47;;;2.51;100.00
72414;BME280;60995;52.154;4.498;2023-12-04T00:43:04;101336.41;;;2.48;100.00
72414;BME280;60995;52.154;4.498;2023-12-04T00:45:20;101337.28;;;2.49;100.00
72414;BME280;60995;52.154;4.498;2023-12-04T00:47:37;101335.38;;;2.51;100.00
72414;BME280;60995;52.154;4.498;2023-12-04T00:49:53;101337.69;;;2.40;100.00
72414;BME280;60995;52.154;4.498;2023-12-04T00:52:09;101346.09;;;2.32;100.00
72414;BME280;60995;52.154;4.498;2023-12-04T00:54:25;101349.41;;;2.37;100.00
72414;BME280;60995;52.154;4.498;2023-12-04T00:56:42;101348.41;;;2.59;100.00
72414;BME280;60995;52.154;4.498;2023-12-04T00:58:58;101338.88;;;2.34;100.00
72414;BME280;60995;52.154;4.498;2023-12-04T01:01:14;101335.47;;;2.50;100.00
72414;BME280;60995;52.154;4.498;2023-12-04T01:03:31;101323.66;;;2.54;100.00
72414;BME280;60995;52.154;4.498;2023-12-04T01:05:48;101319.97;;;2.37;100.00
72414;BME280;60995;52.154;4.498;2023-12-04T01:08:05;101313.97;;;2.32;100.00
72414;BME280;60995;52.154;4.498;2023-12-04T01:10:21;101312.78;;;2.57;100.00
72414;BME280;60995;52.154;4.498;2023-12-04T01:12:37;101312.94;;;2.35;100.00
72414;BME280;60995;52.154;4.498;2023-12-04T01:14:53;101317.81;;;2.45;100.00
72414;BME280;60995;52.154;4.498;2023-12-04T01:17:10;101304.41;;;2.45;100.00
72414;BME280;60995;52.154;4.498;2023-12-04T01:19:26;101297.88;;;2.32;100.00
72414;BME280;60995;52.154;4.498;2023-12-04T01:21:42;101295.66;;;2.23;100.00
72414;BME280;60995;52.154;4.498;2023-12-04T01:23:59;101294.91;;;2.38;100.00
72414;BME280;60995;52.154;4.498;2023-12-04T01:26:15;101290.66;;;2.34;100.00
72414;BME280;60995;52.154;4.498;2023-12-04T01:28:31;101294.00;;;2.39;100.00
72414;BME280;60995;52.154;4.498;2023-12-04T01:30:47;101281.69;;;2.35;100.00
72414;BME280;60995;52.154;4.498;2023-12-04T01:33:03;101279.38;;;2.46;100.00
72414;BME280;60995;52.154;4.498;2023-12-04T01:35:20;101285.03;;;2.40;100.00
72414;BME280;60995;52.154;4.498;2023-12-04T01:37:37;101275.44;;;2.35;100.00
72414;BME280;60995;52.154;4.498;2023-12-04T01:39:54;101273.69;;;2.53;100.00
72414;BME280;60995;52.154;4.498;2023-12-04T01:42:10;101265.91;;;2.48;100.00
72414;BME280;60995;52.154;4.498;2023-12-04T01:44:26;101261.28;;;2.52;100.00
72414;BME280;60995;52.154;4.498;2023-12-04T01:46:43;101256.03;;;2.48;100.00
72414;BME280;60995;52.154;4.498;2023-12-04T01:49:00;101250.22;;;2.58;100.00
72414;BME280;60995;52.154;4.498;2023-12-04T01:51:19;101253.34;;;2.31;100.00
72414;BME280;60995;52.154;4.498;2023-12-04T01:53:38;101254.63;;;2.41;100.00
72414;BME280;60995;52.154;4.498;2023-12-04T01:55:56;101239.84;;;2.52;100.00
72414;BME280;60995;52.154;4.498;2023-12-04T01:58:12;101227.06;;;2.57;100.00
72414;BME280;60995;52.154;4.498;2023-12-04T02:00:30;101218.63;;;2.47;100.00
72414;BME280;60995;52.154;4.498;2023-12-04T02:02:47;101209.41;;;2.53;100.00
72414;BME280;60995;52.154;4.498;2023-12-04T02:05:05;101215.28;;;2.24;100.00
72414;BME280;60995;52.154;4.498;2023-12-04T02:07:23;101210.31;;;2.34;100.00
72414;BME280;60995;52.154;4.498;2023-12-04T02:09:40;101206.25;;;2.44;100.00
72414;BME280;60995;52.154;4.498;2023-12-04T02:11:57;101203.28;;;2.51;100.00
72414;BME280;60995;52.154;4.498;2023-12-04T02:14:14;101200.69;;;2.49;100.00
72414;BME280;60995;52.154;4.498;2023-12-04T02:16:31;101199.78;;;2.48;100.00
72414;BME280;60995;52.154;4.498;2023-12-04T02:18:54;101199.16;;;2.43;100.00
72414;BME280;60995;52.154;4.498;2023-12-04T02:21:10;101190.34;;;2.41;100.00
72414;BME280;60995;52.154;4.498;2023-12-04T02:23:27;101188.44;;;2.43;100.00
72414;BME280;60995;52.154;4.498;2023-12-04T02:25:44;101182.94;;;2.46;100.00
72414;BME280;60995;52.154;4.498;2023-12-04T02:28:02;101182.16;;;2.44;100.00
72414;BME280;60995;52.154;4.498;2023-12-04T02:30:24;101173.81;;;2.51;100.00
72414;BME280;60995;52.154;4.498;2023-12-04T02:32:46;101179.47;;;2.44;100.00
72414;BME280;60995;52.154;4.498;2023-12-04T02:35:05;101163.22;;;2.47;100.00
72414;BME280;60995;52.154;4.498;2023-12-04T02:37:23;101169.31;;;2.51;100.00
72414;BME280;60995;52.154;4.498;2023-12-04T02:39:42;101163.22;;;2.47;100.00
72414;BME280;60995;52.154;4.498;2023-12-04T02:41:59;101152.69;;;2.44;100.00
72414;BME280;60995;52.154;4.498;2023-12-04T02:44:16;101141.41;;;2.55;100.00
72414;BME280;60995;52.154;4.498;2023-12-04T02:46:32;101135.19;;;2.72;100.00
72414;BME280;60995;52.154;4.498;2023-12-04T02:48:48;101128.44;;;2.65;100.00
72414;BME280;60995;52.154;4.498;2023-12-04T02:51:05;101119.84;;;2.58;100.00
72414;BME280;60995;52.154;4.498;2023-12-04T02:53:21;101120.69;;;2.76;100.00
72414;BME280;60995;52.154;4.498;2023-12-04T02:55:38;101114.50;;;2.58;100.00
72414;BME280;60995;52.154;4.498;2023-12-04T02:57:54;101108.41;;;2.72;100.00
72414;BME280;60995;52.154;4.498;2023-12-04T03:00:10;101106.75;;;2.70;100.00
72414;BME280;60995;52.154;4.498;2023-12-04T03:02:27;101107.88;;;2.48;100.00
72414;BME280;60995;52.154;4.498;2023-12-04T03:04:43;101110.47;;;2.50;100.00
72414;BME280;60995;52.154;4.498;2023-12-04T03:07:00;101102.34;;;2.69;100.00
72414;BME280;60995;52.154;4.498;2023-12-04T03:09:17;101098.16;;;2.63;100.00
72414;BME280;60995;52.154;4.498;2023-12-04T03:11:33;101085.25;;;2.71;100.00
72414;BME280;60995;52.154;4.498;2023-12-04T03:13:49;101080.81;;;2.53;100.00
72414;BME280;60995;52.154;4.498;2023-12-04T03:16:06;101077.22;;;2.36;100.00
72414;BME280;60995;52.154;4.498;2023-12-04T03:18:30;101088.00;;;2.52;100.00
72414;BME280;60995;52.154;4.498;2023-12-04T03:20:46;101069.88;;;2.40;100.00
72414;BME280;60995;52.154;4.498;2023-12-04T03:23:02;101074.38;;;2.57;100.00
72414;BME280;60995;52.154;4.498;2023-12-04T03:25:19;101061.00;;;2.39;100.00
72414;BME280;60995;52.154;4.498;2023-12-04T03:27:35;101057.53;;;2.55;100.00
72414;BME280;60995;52.154;4.498;2023-12-04T03:29:51;101046.63;;;2.58;100.00
72414;BME280;60995;52.154;4.498;2023-12-04T03:32:08;101049.22;;;2.59;100.00
72414;BME280;60995;52.154;4.498;2023-12-04T03:34:27;101051.72;;;2.46;100.00
72414;BME280;60995;52.154;4.498;2023-12-04T03:36:43;101055.72;;;2.38;100.00
72414;BME280;60995;52.154;4.498;2023-12-04T03:39:00;101039.72;;;2.54;100.00
72414;BME280;60995;52.154;4.498;2023-12-04T03:41:16;101038.94;;;2.52;100.00
72414;BME280;60995;52.154;4.498;2023-12-04T03:43:32;101036.59;;;2.45;100.00
72414;BME280;60995;52.154;4.498;2023-12-04T03:45:48;101032.91;;;2.64;100.00
72414;BME280;60995;52.154;4.498;2023-12-04T03:48:05;101025.69;;;2.48;100.00
72414;BME280;60995;52.154;4.498;2023-12-04T03:50:21;101014.34;;;2.61;100.00
72414;BME280;60995;52.154;4.498;2023-12-04T03:52:37;101012.38;;;2.47;100.00
72414;BME280;60995;52.154;4.498;2023-12-04T03:54:53;101013.38;;;2.62;100.00
72414;BME280;60995;52.154;4.498;2023-12-04T03:57:10;101009.59;;;2.66;100.00
72414;BME280;60995;52.154;4.498;2023-12-04T03:59:26;100998.78;;;2.52;100.00
72414;BME280;60995;52.154;4.498;2023-12-04T04:01:42;100996.75;;;2.55;100.00
72414;BME280;60995;52.154;4.498;2023-12-04T04:03:58;100996.31;;;2.47;100.00
72414;BME280;60995;52.154;4.498;2023-12-04T04:06:15;100993.88;;;2.42;100.00
72414;BME280;60995;52.154;4.498;2023-12-04T04:08:31;100982.97;;;2.63;100.00
72414;BME280;60995;52.154;4.498;2023-12-04T04:10:47;101005.06;;;2.51;100.00
72414;BME280;60995;52.154;4.498;2023-12-04T04:13:03;100992.69;;;2.48;100.00
72414;BME280;60995;52.154;4.498;2023-12-04T04:15:20;100991.66;;;2.51;100.00
72414;BME280;60995;52.154;4.498;2023-12-04T04:17:36;100991.66;;;2.51;100.00
72414;BME280;60995;52.154;4.498;2023-12-04T04:19:53;100986.31;;;2.51;100.00
72414;BME280;60995;52.154;4.498;2023-12-04T04:22:09;100981.41;;;2.59;100.00
72414;BME280;60995;52.154;4.498;2023-12-04T04:24:26;100975.22;;;2.41;100.00
72414;BME280;60995;52.154;4.498;2023-12-04T04:26:42;100977.34;;;2.52;100.00
72414;BME280;60995;52.154;4.498;2023-12-04T04:28:59;100964.81;;;2.52;100.00
72414;BME280;60995;52.154;4.498;2023-12-04T04:31:15;100964.00;;;2.50;100.00
72414;BME280;60995;52.154;4.498;2023-12-04T04:33:31;100959.44;;;2.52;100.00
72414;BME280;60995;52.154;4.498;2023-12-04T04:35:47;100965.75;;;2.67;100.00
72414;BME280;60995;52.154;4.498;2023-12-04T04:38:04;100962.97;;;2.53;100.00
72414;BME280;60995;52.154;4.498;2023-12-04T04:40:20;100953.28;;;2.50;100.00
72414;BME280;60995;52.154;4.498;2023-12-04T04:42:36;100950.19;;;2.58;100.00
72414;BME280;60995;52.154;4.498;2023-12-04T04:44:52;100959.41;;;2.36;100.00
72414;BME280;60995;52.154;4.498;2023-12-04T04:47:09;100955.63;;;2.40;100.00
72414;BME280;60995;52.154;4.498;2023-12-04T04:49:25;100964.91;;;2.33;100.00
72414;BME280;60995;52.154;4.498;2023-12-04T04:51:41;100952.75;;;2.43;100.00
72414;BME280;60995;52.154;4.498;2023-12-04T04:53:57;100947.28;;;2.62;100.00
72414;BME280;60995;52.154;4.498;2023-12-04T04:56:14;100948.13;;;2.63;100.00
72414;BME280;60995;52.154;4.498;2023-12-04T04:58:31;100940.88;;;2.65;100.00
72414;BME280;60995;52.154;4.498;2023-12-04T05:00:47;100945.53;;;2.45;100.00
72414;BME280;60995;52.154;4.498;2023-12-04T05:03:03;100926.09;;;2.58;100.00
72414;BME280;60995;52.154;4.498;2023-12-04T05:05:20;100924.97;;;2.62;100.00
72414;BME280;60995;52.154;4.498;2023-12-04T05:07:36;100919.19;;;2.70;100.00
72414;BME280;60995;52.154;4.498;2023-12-04T05:09:52;100906.59;;;2.72;100.00
72414;BME280;60995;52.154;4.498;2023-12-04T05:12:08;100906.50;;;2.73;100.00
72414;BME280;60995;52.154;4.498;2023-12-04T05:14:25;100904.75;;;2.72;100.00
72414;BME280;60995;52.154;4.498;2023-12-04T05:16:42;100910.38;;;2.52;100.00
72414;BME280;60995;52.154;4.498;2023-12-04T05:18:59;100906.22;;;2.62;100.00
72414;BME280;60995;52.154;4.498;2023-12-04T05:21:15;100896.09;;;2.67;100.00
72414;BME280;60995;52.154;4.498;2023-12-04T05:23:31;100890.94;;;2.64;100.00
72414;BME280;60995;52.154;4.498;2023-12-04T05:25:47;100896.47;;;2.61;100.00
72414;BME280;60995;52.154;4.498;2023-12-04T05:28:04;100885.06;;;2.73;100.00
72414;BME280;60995;52.154;4.498;2023-12-04T05:30:20;100884.53;;;2.83;100.00
72414;BME280;60995;52.154;4.498;2023-12-04T05:32:36;100880.41;;;2.61;100.00
72414;BME280;60995;52.154;4.498;2023-12-04T05:34:53;100874.84;;;2.64;100.00
72414;BME280;60995;52.154;4.498;2023-12-04T05:37:09;100868.13;;;2.73;100.00
72414;BME280;60995;52.154;4.498;2023-12-04T05:39:25;100877.81;;;2.75;100.00
72414;BME280;60995;52.154;4.498;2023-12-04T05:41:41;100870.97;;;2.54;100.00
72414;BME280;60995;52.154;4.498;2023-12-04T05:43:57;100870.72;;;2.58;100.00
72414;BME280;60995;52.154;4.498;2023-12-04T05:46:14;100869.06;;;2.72;100.00
72414;BME280;60995;52.154;4.498;2023-12-04T05:48:30;100866.91;;;2.62;100.00
72414;BME280;60995;52.154;4.498;2023-12-04T05:50:46;100857.31;;;2.74;100.00
72414;BME280;60995;52.154;4.498;2023-12-04T05:53:02;100859.91;;;2.76;100.00
72414;BME280;60995;52.154;4.498;2023-12-04T05:55:19;100867.94;;;2.76;100.00
72414;BME280;60995;52.154;4.498;2023-12-04T05:57:38;100884.16;;;2.57;100.00
72414;BME280;60995;52.154;4.498;2023-12-04T05:59:55;100875.22;;;2.74;100.00
72414;BME280;60995;52.154;4.498;2023-12-04T06:02:11;100871.06;;;2.68;100.00
72414;BME280;60995;52.154;4.498;2023-12-04T06:04:28;100868.97;;;2.73;100.00
72414;BME280;60995;52.154;4.498;2023-12-04T06:06:44;100869.50;;;2.64;100.00
72414;BME280;60995;52.154;4.498;2023-12-04T06:09:01;100875.56;;;2.84;100.00
72414;BME280;60995;52.154;4.498;2023-12-04T06:11:17;100875.13;;;2.75;100.00
72414;BME280;60995;52.154;4.498;2023-12-04T06:13:33;100873.81;;;2.83;100.00
72414;BME280;60995;52.154;4.498;2023-12-04T06:15:49;100866.91;;;2.78;100.00
72414;BME280;60995;52.154;4.498;2023-12-04T06:18:06;100854.97;;;3.00;100.00
72414;BME280;60995;52.154;4.498;2023-12-04T06:20:22;100857.22;;;2.92;100.00
72414;BME280;60995;52.154;4.498;2023-12-04T06:22:38;100864.59;;;2.88;100.00
72414;BME280;60995;52.154;4.498;2023-12-04T06:24:55;100855.66;;;2.88;100.00
72414;BME280;60995;52.154;4.498;2023-12-04T06:27:15;100852.22;;;2.86;100.00
72414;BME280;60995;52.154;4.498;2023-12-04T06:29:33;100843.59;;;2.80;100.00
72414;BME280;60995;52.154;4.498;2023-12-04T06:31:50;100841.13;;;2.92;100.00
72414;BME280;60995;52.154;4.498;2023-12-04T06:34:07;100831.63;;;2.86;100.00
72414;BME280;60995;52.154;4.498;2023-12-04T06:36:24;100836.16;;;2.86;100.00
72414;BME280;60995;52.154;4.498;2023-12-04T06:38:46;100834.06;;;2.91;100.00
72414;BME280;60995;52.154;4.498;2023-12-04T06:41:04;100832.25;;;2.91;100.00
72414;BME280;60995;52.154;4.498;2023-12-04T06:43:21;100832.00;;;2.96;100.00
72414;BME280;60995;52.154;4.498;2023-12-04T06:45:38;100830.94;;;2.83;100.00
72414;BME280;60995;52.154;4.498;2023-12-04T06:47:55;100825.81;;;3.10;100.00
72414;BME280;60995;52.154;4.498;2023-12-04T06:50:12;100824.50;;;3.01;100.00
72414;BME280;60995;52.154;4.498;2023-12-04T06:52:29;100822.13;;;2.96;100.00
72414;BME280;60995;52.154;4.498;2023-12-04T06:54:45;100820.72;;;3.05;100.00
72414;BME280;60995;52.154;4.498;2023-12-04T06:57:01;100825.44;;;2.86;100.00
72414;BME280;60995;52.154;4.498;2023-12-04T06:59:18;100825.22;;;3.05;100.00
72414;BME280;60995;52.154;4.498;2023-12-04T07:01:35;100812.44;;;2.94;100.00
72414;BME280;60995;52.154;4.498;2023-12-04T07:03:51;100806.22;;;2.93;100.00
72414;BME280;60995;52.154;4.498;2023-12-04T07:06:07;100805.63;;;3.19;100.00
72414;BME280;60995;52.154;4.498;2023-12-04T07:08:25;100802.81;;;3.06;100.00
72414;BME280;60995;52.154;4.498;2023-12-04T07:10:41;100815.16;;;3.08;100.00
72414;BME280;60995;52.154;4.498;2023-12-04T07:12:58;100806.44;;;3.21;100.00
72414;BME280;60995;52.154;4.498;2023-12-04T07:15:14;100794.72;;;3.22;100.00
72414;BME280;60995;52.154;4.498;2023-12-04T07:17:31;100799.88;;;3.10;100.00
72414;BME280;60995;52.154;4.498;2023-12-04T07:19:47;100800.09;;;3.22;100.00
72414;BME280;60995;52.154;4.498;2023-12-04T07:22:04;100797.25;;;3.25;100.00
72414;BME280;60995;52.154;4.498;2023-12-04T07:24:20;100795.91;;;3.32;100.00
72414;BME280;60995;52.154;4.498;2023-12-04T07:26:36;100789.19;;;3.25;100.00
72414;BME280;60995;52.154;4.498;2023-12-04T07:28:55;100785.53;;;3.26;100.00
72414;BME280;60995;52.154;4.498;2023-12-04T07:31:11;100782.91;;;3.10;100.00
72414;BME280;60995;52.154;4.498;2023-12-04T07:33:27;100771.03;;;3.14;100.00
72414;BME280;60995;52.154;4.498;2023-12-04T07:35:44;100779.28;;;3.11;100.00
72414;BME280;60995;52.154;4.498;2023-12-04T07:38:01;100777.78;;;3.21;100.00
72414;BME280;60995;52.154;4.498;2023-12-04T07:40:17;100782.66;;;3.14;100.00
72414;BME280;60995;52.154;4.498;2023-12-04T07:42:33;100763.44;;;3.37;100.00
72414;BME280;60995;52.154;4.498;2023-12-04T07:44:49;100777.09;;;3.18;100.00
72414;BME280;60995;52.154;4.498;2023-12-04T07:47:06;100781.19;;;3.39;100.00
72414;BME280;60995;52.154;4.498;2023-12-04T07:49:22;100765.78;;;3.43;100.00
72414;BME280;60995;52.154;4.498;2023-12-04T07:51:38;100771.00;;;3.30;100.00
72414;BME280;60995;52.154;4.498;2023-12-04T07:53:54;100760.69;;;3.53;100.00
72414;BME280;60995;52.154;4.498;2023-12-04T07:56:11;100772.66;;;3.47;100.00
72414;BME280;60995;52.154;4.498;2023-12-04T07:58:28;100759.81;;;3.38;100.00
72414;BME280;60995;52.154;4.498;2023-12-04T08:00:44;100753.22;;;3.43;100.00
72414;BME280;60995;52.154;4.498;2023-12-04T08:03:00;100765.09;;;3.54;100.00
72414;BME280;60995;52.154;4.498;2023-12-04T08:05:17;100761.38;;;3.56;100.00
72414;BME280;60995;52.154;4.498;2023-12-04T08:07:33;100757.53;;;3.60;100.00
72414;BME280;60995;52.154;4.498;2023-12-04T08:09:50;100751.09;;;3.48;100.00
72414;BME280;60995;52.154;4.498;2023-12-04T08:12:06;100744.34;;;3.27;100.00
72414;BME280;60995;52.154;4.498;2023-12-04T08:14:24;100757.44;;;3.47;100.00
72414;BME280;60995;52.154;4.498;2023-12-04T08:16:40;100768.13;;;3.33;100.00
72414;BME280;60995;52.154;4.498;2023-12-04T08:18:56;100780.22;;;3.40;100.00
72414;BME280;60995;52.154;4.498;2023-12-04T08:21:13;100769.13;;;3.61;100.00
72414;BME280;60995;52.154;4.498;2023-12-04T08:23:29;100757.78;;;3.41;100.00
72414;BME280;60995;52.154;4.498;2023-12-04T08:25:45;100749.97;;;3.53;100.00
72414;BME280;60995;52.154;4.498;2023-12-04T08:28:01;100747.28;;;3.53;100.00
72414;BME280;60995;52.154;4.498;2023-12-04T08:30:18;100733.75;;;3.69;100.00
72414;BME280;60995;52.154;4.498;2023-12-04T08:32:34;100745.25;;;3.42;100.00
72414;BME280;60995;52.154;4.498;2023-12-04T08:34:50;100744.84;;;3.34;100.00
72414;BME280;60995;52.154;4.498;2023-12-04T08:37:07;100726.75;;;3.52;100.00
72414;BME280;60995;52.154;4.498;2023-12-04T08:39:23;100735.16;;;3.31;100.00
72414;BME280;60995;52.154;4.498;2023-12-04T08:41:39;100730.22;;;3.39;100.00
72414;BME280;60995;52.154;4.498;2023-12-04T08:43:56;100721.03;;;3.58;100.00
72414;BME280;60995;52.154;4.498;2023-12-04T08:46:13;100734.34;;;3.59;100.00
72414;BME280;60995;52.154;4.498;2023-12-04T08:48:30;100716.41;;;3.45;100.00
72414;BME280;60995;52.154;4.498;2023-12-04T08:50:47;100714.72;;;3.44;100.00
72414;BME280;60995;52.154;4.498;2023-12-04T08:53:04;100717.38;;;3.59;100.00
72414;BME280;60995;52.154;4.498;2023-12-04T08:55:20;100712.19;;;3.70;100.00
72414;BME280;60995;52.154;4.498;2023-12-04T08:57:37;100710.03;;;3.62;100.00
72414;BME280;60995;52.154;4.498;2023-12-04T08:59:53;100710.78;;;3.50;100.00
72414;BME280;60995;52.154;4.498;2023-12-04T09:02:09;100712.13;;;3.57;100.00
72414;BME280;60995;52.154;4.498;2023-12-04T09:04:26;100711.44;;;3.68;100.00
72414;BME280;60995;52.154;4.498;2023-12-04T09:06:42;100706.84;;;3.56;100.00
72414;BME280;60995;52.154;4.498;2023-12-04T09:08:58;100716.34;;;3.47;100.00
72414;BME280;60995;52.154;4.498;2023-12-04T09:11:15;100702.81;;;3.63;100.00
72414;BME280;60995;52.154;4.498;2023-12-04T09:13:31;100702.63;;;3.66;100.00
72414;BME280;60995;52.154;4.498;2023-12-04T09:15:48;100696.66;;;3.75;100.00
72414;BME280;60995;52.154;4.498;2023-12-04T09:18:04;100701.88;;;3.50;100.00
72414;BME280;60995;52.154;4.498;2023-12-04T09:20:21;100692.28;;;3.60;100.00
72414;BME280;60995;52.154;4.498;2023-12-04T09:22:37;100705.13;;;3.55;100.00
72414;BME280;60995;52.154;4.498;2023-12-04T09:24:54;100697.47;;;3.63;100.00
72414;BME280;60995;52.154;4.498;2023-12-04T09:27:11;100695.34;;;3.68;100.00
72414;BME280;60995;52.154;4.498;2023-12-04T09:29:27;100692.47;;;3.71;100.00
72414;BME280;60995;52.154;4.498;2023-12-04T09:31:43;100697.81;;;3.71;100.00
72414;BME280;60995;52.154;4.498;2023-12-04T09:34:00;100703.97;;;3.73;100.00
72414;BME280;60995;52.154;4.498;2023-12-04T09:36:16;100696.66;;;3.75;100.00
72414;BME280;60995;52.154;4.498;2023-12-04T09:38:34;100688.22;;;3.81;100.00
72414;BME280;60995;52.154;4.498;2023-12-04T09:40:52;100684.97;;;3.76;100.00
72414;BME280;60995;52.154;4.498;2023-12-04T09:43:09;100688.63;;;3.90;100.00
72414;BME280;60995;52.154;4.498;2023-12-04T09:45:26;100688.06;;;3.85;100.00
72414;BME280;60995;52.154;4.498;2023-12-04T09:47:47;100679.78;;;3.88;100.00
72414;BME280;60995;52.154;4.498;2023-12-04T09:50:05;100684.22;;;3.74;100.00
72414;BME280;60995;52.154;4.498;2023-12-04T09:52:22;100679.25;;;3.68;100.00
72414;BME280;60995;52.154;4.498;2023-12-04T09:54:40;100678.34;;;3.96;100.00
72414;BME280;60995;52.154;4.498;2023-12-04T09:56:56;100682.41;;;3.60;100.00
72414;BME280;60995;52.154;4.498;2023-12-04T09:59:14;100667.47;;;3.71;100.00
72414;BME280;60995;52.154;4.498;2023-12-04T10:01:33;100667.19;;;4.03;100.00
72414;BME280;60995;52.154;4.498;2023-12-04T10:03:52;100671.78;;;3.73;100.00
72414;BME280;60995;52.154;4.498;2023-12-04T10:06:15;100662.44;;;3.79;100.00
72414;BME280;60995;52.154;4.498;2023-12-04T10:08:33;100660.44;;;3.83;100.00
72414;BME280;60995;52.154;4.498;2023-12-04T10:10:49;100658.31;;;3.88;100.00
72414;BME280;60995;52.154;4.498;2023-12-04T10:13:05;100649.97;;;3.92;100.00
72414;BME280;60995;52.154;4.498;2023-12-04T10:15:22;100647.38;;;3.91;100.00
72414;BME280;60995;52.154;4.498;2023-12-04T10:17:40;100635.44;;;3.82;100.00
72414;BME280;60995;52.154;4.498;2023-12-04T10:20:10;100635.34;;;3.84;100.00
72414;BME280;60995;52.154;4.498;2023-12-04T10:22:28;100624.09;;;3.91;100.00
72414;BME280;60995;52.154;4.498;2023-12-04T10:24:44;100613.03;;;3.96;100.00
72414;BME280;60995;52.154;4.498;2023-12-04T10:27:05;100626.25;;;3.72;100.00
72414;BME280;60995;52.154;4.498;2023-12-04T10:29:27;100612.59;;;4.17;100.00
72414;BME280;60995;52.154;4.498;2023-12-04T10:31:46;100602.31;;;3.96;100.00
72414;BME280;60995;52.154;4.498;2023-12-04T10:34:04;100595.38;;;4.06;100.00
72414;BME280;60995;52.154;4.498;2023-12-04T10:36:25;100593.59;;;4.20;100.00
72414;BME280;60995;52.154;4.498;2023-12-04T10:38:42;100581.63;;;4.38;100.00
72414;BME280;60995;52.154;4.498;2023-12-04T10:41:11;100581.28;;;4.43;100.00
72414;BME280;60995;52.154;4.498;2023-12-04T10:43:31;100570.50;;;4.83;100.00
72414;BME280;60995;52.154;4.498;2023-12-04T10:45:48;100562.72;;;5.04;100.00
72414;BME280;60995;52.154;4.498;2023-12-04T10:48:06;100563.59;;;4.66;100.00
72414;BME280;60995;52.154;4.498;2023-12-04T10:50:23;100563.56;;;4.40;100.00
72414;BME280;60995;52.154;4.498;2023-12-04T10:52:40;100558.63;;;4.47;100.00
72414;BME280;60995;52.154;4.498;2023-12-04T10:54:59;100553.16;;;5.00;100.00
72414;BME280;60995;52.154;4.498;2023-12-04T10:57:31;100540.34;;;5.17;100.00
72414;BME280;60995;52.154;4.498;2023-12-04T10:59:57;100533.78;;;5.21;100.00
72414;BME280;60995;52.154;4.498;2023-12-04T11:02:20;100537.38;;;4.70;100.00
72414;BME280;60995;52.154;4.498;2023-12-04T11:04:38;100538.13;;;4.97;100.00
72414;BME280;60995;52.154;4.498;2023-12-04T11:06:55;100523.78;;;5.23;100.00
72414;BME280;60995;52.154;4.498;2023-12-04T11:09:12;100529.38;;;5.20;100.00
72414;BME280;60995;52.154;4.498;2023-12-04T11:11:36;100520.09;;;5.24;100.00
72414;BME280;60995;52.154;4.498;2023-12-04T11:14:03;100513.47;;;5.04;100.00
72414;BME280;60995;52.154;4.498;2023-12-04T11:16:54;100508.78;;;4.94;100.00
72414;BME280;60995;52.154;4.498;2023-12-04T11:21:49;100513.25;;;4.94;100.00
72414;BME280;60995;52.154;4.498;2023-12-04T11:24:07;100522.88;;;4.72;100.00
72414;BME280;60995;52.154;4.498;2023-12-04T11:26:24;100529.41;;;4.94;100.00
72414;BME280;60995;52.154;4.498;2023-12-04T11:28:42;100523.19;;;4.80;100.00
72414;BME280;60995;52.154;4.498;2023-12-04T11:31:00;100528.31;;;4.84;100.00
72414;BME280;60995;52.154;4.498;2023-12-04T11:33:20;100531.88;;;4.45;100.00
72414;BME280;60995;52.154;4.498;2023-12-04T11:35:38;100531.56;;;4.63;100.00
72414;BME280;60995;52.154;4.498;2023-12-04T11:37:58;100527.38;;;4.72;100.00
72414;BME280;60995;52.154;4.498;2023-12-04T11:40:15;100539.72;;;4.74;100.00
72414;BME280;60995;52.154;4.498;2023-12-04T11:42:32;100527.38;;;4.85;100.00
72414;BME280;60995;52.154;4.498;2023-12-04T11:44:49;100534.97;;;4.52;100.00
72414;BME280;60995;52.154;4.498;2023-12-04T11:47:11;100521.03;;;4.60;100.00
72414;BME280;60995;52.154;4.498;2023-12-04T11:49:29;100525.66;;;4.71;100.00
72414;BME280;60995;52.154;4.498;2023-12-04T11:51:46;100525.63;;;4.96;100.00
72414;BME280;60995;52.154;4.498;2023-12-04T11:54:07;100522.75;;;4.61;100.00
72414;BME280;60995;52.154;4.498;2023-12-04T11:56:24;100525.97;;;4.66;100.00
72414;BME280;60995;52.154;4.498;2023-12-04T11:58:44;100525.09;;;4.91;100.00
72414;BME280;60995;52.154;4.498;2023-12-04T12:01:01;100522.53;;;4.64;100.00